Time;durP1;ratioP1;P1;durP2;ratioP2;P2;SDS_P1;SDS_P2;PMS_P1;PMS_P2;Temp;Humidity;BMP_temperature;BMP_pressure;BME280_temperature;BME280_humidity;BME280_pressure;Samples;Min_cycle;Max_cycle;Signal;HPM_P1;HPM_P2
2022/09/21 00:01:28;;;;;;;1.90;1.20;;;;;;;;;;4995688;28;93312;-66
2022/09/21 00:03:59;;;;;;;6.97;1.50;;;;;;;;;;5000223;28;93711;-65
2022/09/21 00:06:26;;;;;;;4.13;1.38;;;;;;;;;;4994446;28;95038;-65
2022/09/21 00:08:52;;;;;;;2.95;1.40;;;;;;;;;;4992034;28;93198;-64
2022/09/21 00:11:26;;;;;;;3.88;1.50;;;;;;;;;;4983400;28;93798;-65
2022/09/21 00:13:53;;;;;;;7.30;1.83;;;;;;;;;;4997003;28;93664;-66
2022/09/21 00:16:21;;;;;;;2.58;1.38;;;;;;;;;;4994381;28;94354;-66
2022/09/21 00:18:47;;;;;;;5.50;1.55;;;;;;;;;;5000082;28;93765;-65
2022/09/21 00:21:15;;;;;;;7.78;1.83;;;;;;;;;;4999673;28;93291;-66
2022/09/21 00:23:41;;;;;;;5.65;1.70;;;;;;;;;;4992725;28;92629;-65
2022/09/21 00:26:09;;;;;;;5.15;1.50;;;;;;;;;;4997193;28;92465;-66
2022/09/21 00:28:36;;;;;;;8.60;1.50;;;;;;;;;;5006588;28;93850;-65
2022/09/21 00:31:03;;;;;;;6.18;1.38;;;;;;;;;;4992965;28;94791;-65
2022/09/21 00:33:29;;;;;;;5.68;1.85;;;;;;;;;;4995243;28;95390;-66
2022/09/21 00:36:00;;;;;;;6.93;1.50;;;;;;;;;;4994971;28;92731;-65
2022/09/21 00:38:27;;;;;;;2.00;1.58;;;;;;;;;;4993035;28;92542;-65
2022/09/21 00:40:53;;;;;;;3.35;1.40;;;;;;;;;;4993044;28;93015;-65
2022/09/21 00:43:19;;;;;;;7.00;1.70;;;;;;;;;;4985340;28;93443;-65
2022/09/21 00:45:47;;;;;;;7.13;1.35;;;;;;;;;;4997308;28;92436;-66
2022/09/21 00:48:14;;;;;;;4.82;1.63;;;;;;;;;;4996720;28;93437;-65
2022/09/21 00:50:44;;;;;;;8.05;1.63;;;;;;;;;;4993181;28;92474;-66
2022/09/21 00:53:11;;;;;;;;;;;;;;;;;;4994374;28;93120;-65
2022/09/21 00:55:41;;;;;;;2.78;1.38;;;;;;;;;;4992601;28;126451;-65
2022/09/21 00:58:09;;;;;;;4.68;1.50;;;;;;;;;;4994230;28;93174;-65
2022/09/21 01:00:35;;;;;;;3.28;1.20;;;;;;;;;;4991791;28;94266;-67
2022/09/21 01:03:03;;;;;;;5.22;1.30;;;;;;;;;;4982902;28;93973;-66
2022/09/21 01:05:30;;;;;;;2.28;1.45;;;;;;;;;;4992639;28;92577;-65
2022/09/21 01:08:00;;;;;;;5.95;1.17;;;;;;;;;;5020303;28;92955;-65
2022/09/21 01:10:27;;;;;;;;;;;;;;;;;;4996194;28;93481;-65
2022/09/21 01:13:08;;;;;;;4.70;1.10;;;;;;;;;;4994223;28;122157;-65
2022/09/21 01:15:47;;;;;;;13.45;1.38;;;;;;;;;;4984316;28;93761;-65
2022/09/21 01:18:24;;;;;;;2.15;0.90;;;;;;;;;;4993490;28;92406;-66
2022/09/21 01:21:09;;;;;;;7.50;1.00;;;;;;;;;;4988009;28;94994;-67
2022/09/21 01:23:37;;;;;;;0.80;0.80;;;;;;;;;;4992884;28;96218;-65
2022/09/21 01:26:21;;;;;;;1.40;0.70;;;;;;;;;;4993647;28;92544;-66
2022/09/21 01:29:06;;;;;;;1.15;0.95;;;;;;;;;;4987261;28;92782;-66
2022/09/21 01:31:39;;;;;;;1.02;0.98;;;;;;;;;;4991357;28;93095;-66
2022/09/21 01:34:09;;;;;;;7.07;1.48;;;;;;;;;;5017369;28;93413;-65
2022/09/21 01:36:36;;;;;;;8.07;1.02;;;;;;;;;;4993769;28;93421;-65
2022/09/21 01:39:06;;;;;;;5.15;1.05;;;;;;;;;;4992791;28;93030;-66
2022/09/21 01:41:34;;;;;;;4.20;0.90;;;;;;;;;;4992943;28;92494;-65
2022/09/21 01:44:07;;;;;;;3.53;0.88;;;;;;;;;;4984762;28;93425;-65
2022/09/21 01:46:34;;;;;;;5.88;1.30;;;;;;;;;;4994459;28;94924;-66
2022/09/21 01:49:04;;;;;;;5.80;1.27;;;;;;;;;;4993791;28;95329;-66
2022/09/21 01:51:32;;;;;;;6.88;1.10;;;;;;;;;;4993101;28;93540;-66
2022/09/21 01:54:03;;;;;;;2.22;1.00;;;;;;;;;;4997015;28;92808;-66
2022/09/21 01:56:34;;;;;;;5.22;1.15;;;;;;;;;;4992684;28;92920;-65
2022/09/21 01:59:07;;;;;;;20.13;1.52;;;;;;;;;;4996885;28;92525;-65
2022/09/21 02:01:35;;;;;;;1.70;0.93;;;;;;;;;;4996177;28;93652;-65
2022/09/21 02:04:04;;;;;;;5.18;1.15;;;;;;;;;;4994354;28;92814;-65
2022/09/21 02:06:31;;;;;;;6.50;1.42;;;;;;;;;;4994762;28;92583;-66
2022/09/21 02:08:57;;;;;;;6.40;1.15;;;;;;;;;;4990875;28;93123;-66
2022/09/21 02:11:23;;;;;;;2.95;1.20;;;;;;;;;;4990152;28;95901;-66
2022/09/21 02:13:51;;;;;;;11.52;1.35;;;;;;;;;;5025437;28;94009;-66
2022/09/21 02:16:29;;;;;;;10.07;1.52;;;;;;;;;;4996124;28;92479;-66
2022/09/21 02:19:01;;;;;;;3.38;1.10;;;;;;;;;;5027515;28;93574;-66
2022/09/21 02:21:32;;;;;;;3.00;1.13;;;;;;;;;;4996433;28;93136;-65
2022/09/21 02:24:01;;;;;;;1.58;1.00;;;;;;;;;;4996600;28;93472;-66
2022/09/21 02:26:33;;;;;;;3.80;1.20;;;;;;;;;;5003036;28;92495;-66
2022/09/21 02:29:13;;;;;;;5.70;1.30;;;;;;;;;;4995912;28;93060;-65
2022/09/21 02:31:42;;;;;;;1.50;0.93;;;;;;;;;;4994346;28;94144;-66
2022/09/21 02:34:20;;;;;;;3.42;1.20;;;;;;;;;;4995033;28;92549;-65
2022/09/21 02:37:01;;;;;;;4.55;1.20;;;;;;;;;;4988778;28;96335;-65
2022/09/21 02:39:27;;;;;;;;;;;;;;;;;;4994333;28;93440;-65
2022/09/21 02:42:02;;;;;;;4.38;1.02;;;;;;;;;;4994425;28;123858;-65
2022/09/21 02:44:32;;;;;;;0.80;0.80;;;;;;;;;;4996551;28;93434;-66
2022/09/21 02:47:04;;;;;;;4.68;1.10;;;;;;;;;;5000040;28;92507;-66
2022/09/21 02:49:33;;;;;;;8.45;1.45;;;;;;;;;;4995544;28;93075;-66
2022/09/21 02:52:04;;;;;;;3.67;1.15;;;;;;;;;;4994782;28;92443;-66
2022/09/21 02:54:31;;;;;;;4.30;1.05;;;;;;;;;;4987521;28;91781;-66
2022/09/21 02:56:58;;;;;;;4.60;0.82;;;;;;;;;;4996865;28;92975;-65
2022/09/21 02:59:25;;;;;;;4.35;1.10;;;;;;;;;;5026099;28;93394;-65
2022/09/21 03:01:52;;;;;;;3.78;1.08;;;;;;;;;;4984485;28;94941;-65
2022/09/21 03:04:18;;;;;;;5.82;1.90;;;;;;;;;;4984382;28;94064;-65
2022/09/21 03:06:44;;;;;;;2.22;1.30;;;;;;;;;;4990537;28;93920;-65
2022/09/21 03:09:10;;;;;;;2.20;1.10;;;;;;;;;;4989938;28;94470;-65
2022/09/21 03:11:37;;;;;;;1.33;1.23;;;;;;;;;;5024988;28;93465;-65
2022/09/21 03:14:07;;;;;;;3.58;1.25;;;;;;;;;;5027899;28;92549;-65
2022/09/21 03:16:37;;;;;;;8.98;1.33;;;;;;;;;;4994778;28;94272;-66
2022/09/21 03:19:03;;;;;;;8.43;1.93;;;;;;;;;;4995374;28;92387;-65
2022/09/21 03:21:30;;;;;;;5.28;1.40;;;;;;;;;;4996342;28;93617;-65
2022/09/21 03:23:56;;;;;;;7.10;1.13;;;;;;;;;;4998624;28;94224;-66
2022/09/21 03:26:23;;;;;;;2.08;1.40;;;;;;;;;;4994164;28;94982;-65
2022/09/21 03:28:50;;;;;;;2.25;1.00;;;;;;;;;;4995319;28;95517;-65
2022/09/21 03:31:16;;;;;;;1.85;1.08;;;;;;;;;;4983216;28;93394;-66
2022/09/21 03:33:42;;;;;;;11.30;1.52;;;;;;;;;;4995460;28;92530;-66
2022/09/21 03:36:09;;;;;;;4.47;1.55;;;;;;;;;;5024017;28;94120;-65
2022/09/21 03:38:36;;;;;;;2.33;1.30;;;;;;;;;;4997313;28;93691;-65
2022/09/21 03:41:03;;;;;;;3.40;1.10;;;;;;;;;;4995454;28;92520;-66
2022/09/21 03:43:30;;;;;;;4.10;1.70;;;;;;;;;;4998869;28;93096;-65
2022/09/21 03:45:56;;;;;;;3.22;1.05;;;;;;;;;;4998146;28;93452;-65
2022/09/21 03:48:23;;;;;;;1.45;1.02;;;;;;;;;;4993586;28;92958;-66
2022/09/21 03:50:49;;;;;;;10.90;1.70;;;;;;;;;;4992077;28;95845;-65
2022/09/21 03:53:16;;;;;;;2.60;1.00;;;;;;;;;;4994009;28;92778;-65
2022/09/21 03:55:42;;;;;;;1.60;1.10;;;;;;;;;;4995026;28;94190;-65
2022/09/21 03:58:09;;;;;;;6.68;1.30;;;;;;;;;;4996857;28;93721;-65
2022/09/21 04:00:35;;;;;;;6.57;1.10;;;;;;;;;;4993317;28;92505;-65
2022/09/21 04:03:01;;;;;;;3.20;1.50;;;;;;;;;;4997635;28;93093;-65
2022/09/21 04:05:28;;;;;;;4.53;1.00;;;;;;;;;;4996560;28;93349;-65
2022/09/21 04:07:55;;;;;;;3.83;1.40;;;;;;;;;;4995537;28;91747;-65
2022/09/21 04:10:31;;;;;;;2.22;1.33;;;;;;;;;;4993087;28;94431;-65
2022/09/21 04:13:00;;;;;;;1.98;1.25;;;;;;;;;;4993107;28;93312;-65
2022/09/21 04:15:28;;;;;;;8.00;1.13;;;;;;;;;;5026284;27;94897;-65
2022/09/21 04:17:54;;;;;;;4.18;1.48;;;;;;;;;;4993684;28;93429;-65
2022/09/21 04:20:21;;;;;;;1.67;1.15;;;;;;;;;;4995764;28;92475;-65
2022/09/21 04:22:47;;;;;;;2.08;1.27;;;;;;;;;;4994364;28;93608;-65
2022/09/21 04:25:14;;;;;;;2.28;1.23;;;;;;;;;;4995003;28;93840;-65
2022/09/21 04:27:41;;;;;;;1.83;1.00;;;;;;;;;;4995163;28;92511;-65
2022/09/21 04:30:07;;;;;;;8.57;1.75;;;;;;;;;;5023474;28;94255;-65
2022/09/21 04:32:33;;;;;;;19.45;1.65;;;;;;;;;;4993958;28;92055;-65
2022/09/21 04:35:00;;;;;;;1.30;1.20;;;;;;;;;;5023405;28;93688;-65
2022/09/21 04:37:26;;;;;;;4.13;1.42;;;;;;;;;;4991669;28;93862;-66
2022/09/21 04:39:52;;;;;;;1.75;1.10;;;;;;;;;;4992876;28;96578;-65
2022/09/21 04:42:18;;;;;;;2.33;1.30;;;;;;;;;;4995821;28;95468;-65
2022/09/21 04:44:45;;;;;;;7.55;1.48;;;;;;;;;;4997486;28;93419;-65
2022/09/21 04:47:11;;;;;;;3.45;1.30;;;;;;;;;;4994094;28;93916;-65
2022/09/21 04:49:37;;;;;;;2.08;1.20;;;;;;;;;;4996614;28;93467;-65
2022/09/21 04:52:04;;;;;;;4.03;1.20;;;;;;;;;;4994212;28;92535;-64
2022/09/21 04:54:31;;;;;;;2.60;1.48;;;;;;;;;;5025236;28;93135;-65
2022/09/21 04:56:57;;;;;;;2.92;1.42;;;;;;;;;;5026030;28;92732;-66
2022/09/21 04:59:23;;;;;;;2.30;1.30;;;;;;;;;;4993095;28;92634;-65
2022/09/21 05:01:49;;;;;;;1.30;1.10;;;;;;;;;;4992460;28;93803;-65
2022/09/21 05:04:16;;;;;;;4.00;1.20;;;;;;;;;;4976487;28;95928;-65
2022/09/21 05:06:42;;;;;;;8.07;2.10;;;;;;;;;;4991546;28;92817;-65
2022/09/21 05:11:53;;;;;;;5.13;1.20;;;;;;;;;;4996297;28;93859;-67
2022/09/21 05:14:19;;;;;;;1.80;1.45;;;;;;;;;;4993657;28;93141;-65
2022/09/21 05:16:48;;;;;;;2.78;1.40;;;;;;;;;;4993437;28;93637;-65
2022/09/21 05:19:15;;;;;;;3.83;1.20;;;;;;;;;;5001526;28;92433;-66
2022/09/21 05:21:42;;;;;;;3.80;1.33;;;;;;;;;;4994647;28;93087;-66
2022/09/21 05:24:08;;;;;;;2.08;1.00;;;;;;;;;;4993497;28;93460;-65
2022/09/21 05:26:34;;;;;;;2.42;1.08;;;;;;;;;;4987506;28;92541;-66
2022/09/21 05:29:01;;;;;;;2.92;1.30;;;;;;;;;;5017831;28;95058;-65
2022/09/21 05:31:46;;;;;;;2.53;1.02;;;;;;;;;;4989625;28;93470;-65
2022/09/21 05:34:32;;;;;;;1.98;1.30;;;;;;;;;;4989074;28;93715;-65
2022/09/21 05:37:08;;;;;;;6.53;1.20;;;;;;;;;;4991364;28;93657;-66
2022/09/21 05:39:35;;;;;;;3.17;1.02;;;;;;;;;;4987603;28;92550;-65
2022/09/21 05:42:01;;;;;;;28.88;1.90;;;;;;;;;;4994101;28;94231;-65
2022/09/21 05:44:28;;;;;;;3.75;0.95;;;;;;;;;;4995857;28;93404;-66
2022/09/21 05:46:57;;;;;;;3.03;1.35;;;;;;;;;;4993728;28;91852;-66
2022/09/21 05:49:38;;;;;;;3.70;1.45;;;;;;;;;;4992783;28;92499;-65
2022/09/21 05:52:13;;;;;;;1.48;1.10;;;;;;;;;;4991441;28;93464;-65
2022/09/21 05:54:58;;;;;;;6.85;1.40;;;;;;;;;;4990512;28;96153;-64
2022/09/21 05:57:35;;;;;;;4.32;1.30;;;;;;;;;;4983561;28;95771;-64
2022/09/21 06:00:10;;;;;;;3.05;1.27;;;;;;;;;;4974731;28;92448;-64
2022/09/21 06:02:48;;;;;;;6.65;1.35;;;;;;;;;;4974532;28;93093;-65
2022/09/21 06:05:15;;;;;;;4.40;1.40;;;;;;;;;;4988989;28;93482;-65
2022/09/21 06:07:41;;;;;;;5.65;1.60;;;;;;;;;;4996750;28;92574;-65
2022/09/21 06:10:08;;;;;;;6.85;1.92;;;;;;;;;;4994973;28;94483;-64
2022/09/21 06:12:35;;;;;;;9.82;1.52;;;;;;;;;;4994805;28;92725;-65
2022/09/21 06:15:01;;;;;;;7.53;1.25;;;;;;;;;;4994349;28;94502;-65
2022/09/21 06:17:27;;;;;;;4.82;1.38;;;;;;;;;;4994197;28;93457;-65
2022/09/21 06:19:53;;;;;;;4.82;2.28;;;;;;;;;;4994011;28;95899;-65
2022/09/21 06:22:20;;;;;;;5.13;1.60;;;;;;;;;;4994196;28;95441;-65
2022/09/21 06:24:46;;;;;;;4.35;1.60;;;;;;;;;;4994256;28;94723;-65
2022/09/21 06:27:12;;;;;;;5.18;1.52;;;;;;;;;;4993900;28;92467;-65
2022/09/21 06:29:39;;;;;;;5.53;1.42;;;;;;;;;;4994280;28;93122;-65
2022/09/21 06:32:05;;;;;;;2.67;1.50;;;;;;;;;;4993937;28;93465;-65
2022/09/21 06:34:31;;;;;;;11.13;1.92;;;;;;;;;;4993824;28;92491;-65
2022/09/21 06:36:57;;;;;;;16.55;1.88;;;;;;;;;;4994713;28;93114;-65
2022/09/21 06:39:24;;;;;;;2.10;1.80;;;;;;;;;;4993833;28;93777;-65
2022/09/21 06:41:50;;;;;;;8.00;2.50;;;;;;;;;;4998683;28;92533;-65
2022/09/21 06:44:17;;;;;;;9.35;2.92;;;;;;;;;;4995382;28;95779;-66
2022/09/21 06:46:43;;;;;;;7.05;2.60;;;;;;;;;;4995973;28;92486;-65
2022/09/21 06:49:09;;;;;;;3.65;2.33;;;;;;;;;;5000024;28;94477;-64
2022/09/21 06:51:35;;;;;;;5.60;2.78;;;;;;;;;;4997000;28;94491;-65
2022/09/21 06:54:02;;;;;;;4.43;2.80;;;;;;;;;;5029087;28;92526;-65
2022/09/21 06:56:28;;;;;;;12.25;3.35;;;;;;;;;;4997255;28;93886;-65
2022/09/21 06:58:54;;;;;;;4.78;2.75;;;;;;;;;;4995346;28;93467;-65
2022/09/21 07:01:20;;;;;;;8.90;2.95;;;;;;;;;;4991002;28;91751;-65
2022/09/21 07:03:48;;;;;;;6.22;2.92;;;;;;;;;;4993354;28;96294;-65
2022/09/21 07:06:14;;;;;;;7.57;2.92;;;;;;;;;;4994985;28;94023;-65
2022/09/21 07:08:41;;;;;;;7.32;3.03;;;;;;;;;;4995501;28;94825;-65
2022/09/21 07:11:27;;;;;;;12.30;2.90;;;;;;;;;;4991195;28;93145;-65
2022/09/21 07:13:54;;;;;;;6.38;3.50;;;;;;;;;;4996568;28;92493;-65
2022/09/21 07:16:21;;;;;;;6.95;3.95;;;;;;;;;;4996620;28;93063;-65
2022/09/21 07:18:47;;;;;;;14.18;4.10;;;;;;;;;;4996990;28;93617;-65
2022/09/21 07:21:14;;;;;;;4.97;3.60;;;;;;;;;;4996152;28;92466;-65
2022/09/21 07:23:40;;;;;;;10.68;3.58;;;;;;;;;;4998595;28;93155;-65
2022/09/21 07:26:07;;;;;;;9.68;4.10;;;;;;;;;;4996633;28;91704;-65
2022/09/21 07:28:34;;;;;;;9.65;3.78;;;;;;;;;;4978161;28;93748;-66
2022/09/21 07:31:08;;;;;;;7.43;4.13;;;;;;;;;;4977502;28;95508;-65
2022/09/21 07:33:35;;;;;;;9.30;3.95;;;;;;;;;;4994005;28;94852;-65
2022/09/21 07:36:08;;;;;;;8.93;3.75;;;;;;;;;;4996363;28;95508;-65
2022/09/21 07:38:38;;;;;;;9.02;3.92;;;;;;;;;;4996743;28;93393;-65
2022/09/21 07:41:09;;;;;;;15.23;4.35;;;;;;;;;;4994905;28;92403;-65
2022/09/21 07:43:38;;;;;;;11.27;4.03;;;;;;;;;;4987288;28;93565;-65
2022/09/21 07:46:05;;;;;;;9.13;3.40;;;;;;;;;;4998830;28;93680;-65
2022/09/21 07:48:31;;;;;;;16.92;4.85;;;;;;;;;;4994721;28;93010;-66
2022/09/21 07:51:05;;;;;;;6.28;3.63;;;;;;;;;;4993733;28;92052;-66
2022/09/21 07:53:34;;;;;;;11.45;3.65;;;;;;;;;;4994686;28;92526;-65
2022/09/21 07:56:01;;;;;;;14.27;3.70;;;;;;;;;;4995535;28;93163;-65
2022/09/21 08:01:12;;;;;;;13.00;4.72;;;;;;;;;;4986284;28;92562;-65
2022/09/21 08:03:39;;;;;;;14.10;3.30;;;;;;;;;;4996560;28;93237;-65
2022/09/21 08:06:06;;;;;;;12.68;3.13;;;;;;;;;;4994888;28;93372;-65
2022/09/21 08:08:32;;;;;;;14.07;3.38;;;;;;;;;;4997797;28;92419;-65
2022/09/21 08:11:05;;;;;;;9.70;2.83;;;;;;;;;;5025394;28;94140;-66
2022/09/21 08:13:31;;;;;;;10.32;2.85;;;;;;;;;;4995171;28;92451;-65
2022/09/21 08:15:58;;;;;;;13.63;3.33;;;;;;;;;;4994184;28;93138;-65
2022/09/21 08:18:24;;;;;;;10.57;2.95;;;;;;;;;;4997801;28;94803;-65
2022/09/21 08:20:54;;;;;;;13.15;4.00;;;;;;;;;;5025568;27;92501;-65
2022/09/21 08:23:21;;;;;;;11.57;3.47;;;;;;;;;;4994616;28;94834;-66
2022/09/21 08:25:47;;;;;;;9.75;2.90;;;;;;;;;;4994328;28;93555;-66
2022/09/21 08:28:13;;;;;;;9.43;2.88;;;;;;;;;;4993283;28;93248;-65
2022/09/21 08:30:40;;;;;;;4.93;2.67;;;;;;;;;;4995096;28;93141;-65
2022/09/21 08:33:07;;;;;;;13.73;2.90;;;;;;;;;;4984482;28;92444;-66
2022/09/21 08:35:34;;;;;;;14.25;3.80;;;;;;;;;;4994910;28;93139;-66
2022/09/21 08:38:00;;;;;;;14.73;3.05;;;;;;;;;;4994421;28;93786;-66
2022/09/21 08:40:27;;;;;;;8.07;3.33;;;;;;;;;;4986726;28;91735;-66
2022/09/21 08:42:54;;;;;;;14.65;3.05;;;;;;;;;;4975735;28;92355;-66
2022/09/21 08:45:20;;;;;;;9.23;2.47;;;;;;;;;;4979221;28;93418;-66
2022/09/21 08:47:55;;;;;;;6.72;2.78;;;;;;;;;;4985759;28;94936;-66
2022/09/21 08:50:32;;;;;;;7.90;3.03;;;;;;;;;;4994965;28;95565;-67
2022/09/21 08:53:18;;;;;;;21.80;2.65;;;;;;;;;;4994478;28;92661;-66
2022/09/21 08:55:45;;;;;;;16.35;2.83;;;;;;;;;;4993896;28;93461;-67
2022/09/21 08:58:22;;;;;;;15.32;2.55;;;;;;;;;;4989716;28;93789;-66
2022/09/21 09:01:00;;;;;;;11.55;2.83;;;;;;;;;;4974123;28;92567;-67
2022/09/21 09:03:32;;;;;;;10.82;1.90;;;;;;;;;;4973823;28;94226;-67
2022/09/21 09:06:00;;;;;;;18.95;2.47;;;;;;;;;;4979651;28;93900;-66
2022/09/21 09:08:41;;;;;;;12.10;3.15;;;;;;;;;;4994581;28;92553;-66
2022/09/21 09:11:15;;;;;;;11.23;2.05;;;;;;;;;;4994295;28;93140;-66
2022/09/21 09:13:54;;;;;;;9.95;2.10;;;;;;;;;;5012908;28;95762;-66
2022/09/21 09:16:32;;;;;;;10.88;2.53;;;;;;;;;;4993148;28;95461;-66
2022/09/21 09:19:04;;;;;;;19.83;2.58;;;;;;;;;;4992394;28;93719;-66
2022/09/21 09:21:37;;;;;;;9.77;2.30;;;;;;;;;;4992906;28;92487;-67
2022/09/21 09:24:08;;;;;;;9.80;1.70;;;;;;;;;;4993927;28;93160;-68
2022/09/21 09:26:41;;;;;;;11.45;1.98;;;;;;;;;;4987037;28;93447;-66
2022/09/21 09:29:13;;;;;;;12.93;1.73;;;;;;;;;;4993099;28;92779;-67
2022/09/21 09:31:39;;;;;;;4.57;1.33;;;;;;;;;;4980535;28;93167;-66
2022/09/21 09:34:10;;;;;;;11.40;2.00;;;;;;;;;;4974746;28;93500;-66
2022/09/21 09:36:38;;;;;;;6.30;1.73;;;;;;;;;;4981623;28;92586;-66
2022/09/21 09:39:24;;;;;;;9.10;1.58;;;;;;;;;;4973283;28;95898;-66
2022/09/21 09:42:02;;;;;;;7.38;1.55;;;;;;;;;;4974795;28;92562;-67
2022/09/21 09:44:28;;;;;;;8.70;2.10;;;;;;;;;;4986493;28;93149;-67
2022/09/21 09:46:59;;;;;;;9.65;1.90;;;;;;;;;;4993275;28;93440;-66
2022/09/21 09:49:30;;;;;;;10.95;2.15;;;;;;;;;;4994870;28;92485;-67
2022/09/21 09:51:56;;;;;;;6.15;1.63;;;;;;;;;;4994868;28;93611;-66
2022/09/21 09:54:25;;;;;;;8.73;1.55;;;;;;;;;;4992905;28;93442;-67
2022/09/21 09:56:52;;;;;;;6.57;1.35;;;;;;;;;;4987298;28;91777;-67
2022/09/21 09:59:26;;;;;;;7.90;1.50;;;;;;;;;;4982002;28;92708;-66
2022/09/21 10:02:04;;;;;;;3.92;1.10;;;;;;;;;;4993437;28;92518;-66
2022/09/21 10:04:31;;;;;;;6.18;1.40;;;;;;;;;;4994241;28;94833;-67
2022/09/21 10:06:57;;;;;;;6.72;0.90;;;;;;;;;;4983535;28;93675;-66
2022/09/21 10:09:31;;;;;;;5.93;1.15;;;;;;;;;;4994610;28;92760;-67
2022/09/21 10:12:17;;;;;;;10.85;1.40;;;;;;;;;;4992213;28;94198;-66
2022/09/21 10:14:55;;;;;;;9.93;1.20;;;;;;;;;;4993570;28;93442;-66
2022/09/21 10:17:23;;;;;;;7.28;1.02;;;;;;;;;;4997980;28;92593;-66
2022/09/21 10:19:58;;;;;;;3.33;1.05;;;;;;;;;;4998047;28;93244;-67
2022/09/21 10:22:24;;;;;;;4.68;1.23;;;;;;;;;;4997931;28;92822;-67
2022/09/21 10:24:52;;;;;;;7.65;1.25;;;;;;;;;;5017854;28;93118;-66
2022/09/21 10:27:22;;;;;;;4.65;1.05;;;;;;;;;;4975616;28;93511;-67
2022/09/21 10:29:48;;;;;;;5.72;1.15;;;;;;;;;;4981075;28;94908;-67
2022/09/21 10:32:15;;;;;;;5.03;1.30;;;;;;;;;;4997693;28;95864;-66
2022/09/21 10:35:09;;;;;;;6.90;1.70;;;;;;;;;;4995842;28;93431;-66
2022/09/21 10:37:40;;;;;;;4.10;1.17;;;;;;;;;;4989356;28;92557;-67
2022/09/21 10:40:18;;;;;;;6.30;1.10;;;;;;;;;;4994423;28;93056;-66
2022/09/21 10:42:46;;;;;;;3.97;1.30;;;;;;;;;;4998822;28;93439;-67
2022/09/21 10:45:14;;;;;;;2.60;1.30;;;;;;;;;;4999964;28;92449;-67
2022/09/21 10:47:42;;;;;;;9.15;1.38;;;;;;;;;;4997357;28;93006;-66
2022/09/21 10:50:21;;;;;;;7.57;1.20;;;;;;;;;;4995626;28;92429;-67
2022/09/21 10:52:48;;;;;;;10.35;1.52;;;;;;;;;;4988803;28;93556;-67
2022/09/21 10:55:19;;;;;;;4.65;1.00;;;;;;;;;;4990555;28;95866;-67
2022/09/21 10:57:46;;;;;;;4.38;0.80;;;;;;;;;;4995715;28;92514;-67
2022/09/21 11:00:24;;;;;;;3.90;1.13;;;;;;;;;;4996869;28;93759;-67
2022/09/21 11:02:53;;;;;;;8.05;1.10;;;;;;;;;;4997693;28;93417;-67
2022/09/21 11:05:20;;;;;;;4.15;1.00;;;;;;;;;;4998942;28;92549;-67
2022/09/21 11:07:49;;;;;;;5.45;1.10;;;;;;;;;;4996760;28;93778;-67
2022/09/21 11:10:21;;;;;;;5.70;1.10;;;;;;;;;;4976920;28;92514;-67
2022/09/21 11:12:52;;;;;;;2.75;0.63;;;;;;;;;;4994003;28;93086;-67
2022/09/21 11:15:24;;;;;;;2.08;0.70;;;;;;;;;;4989235;28;93474;-68
2022/09/21 11:17:56;;;;;;;1.80;0.55;;;;;;;;;;4995815;28;92435;-68
2022/09/21 11:20:29;;;;;;;5.75;0.85;;;;;;;;;;4994698;28;95084;-67
2022/09/21 11:23:03;;;;;;;1.70;0.75;;;;;;;;;;4996029;28;93594;-67
2022/09/21 11:25:41;;;;;;;3.17;0.70;;;;;;;;;;4994302;28;92513;-68
2022/09/21 11:28:26;;;;;;;2.65;0.77;;;;;;;;;;4999248;28;93460;-69
2022/09/21 11:31:05;;;;;;;2.90;1.10;;;;;;;;;;5024040;28;92555;-68
2022/09/21 11:33:31;;;;;;;3.47;0.90;;;;;;;;;;4993660;28;93107;-67
2022/09/21 11:36:02;;;;;;;6.25;1.00;;;;;;;;;;4994862;28;93788;-68
2022/09/21 11:38:46;;;;;;;5.97;0.98;;;;;;;;;;4996847;28;91790;-68
2022/09/21 11:41:20;;;;;;;2.25;1.05;;;;;;;;;;4998294;28;92592;-67
2022/09/21 11:43:46;;;;;;;4.88;1.35;;;;;;;;;;5024056;28;93483;-68
2022/09/21 11:46:32;;;;;;;5.03;0.82;;;;;;;;;;4995322;28;94779;-67
2022/09/21 11:49:01;;;;;;;2.90;0.90;;;;;;;;;;4996184;28;95776;-68
2022/09/21 11:51:38;;;;;;;3.65;1.05;;;;;;;;;;5000909;28;93408;-68
2022/09/21 11:54:24;;;;;;;3.58;1.00;;;;;;;;;;4995958;28;93604;-68
2022/09/21 11:57:03;;;;;;;5.03;1.15;;;;;;;;;;4994729;28;93766;-68
2022/09/21 11:59:37;;;;;;;3.67;1.20;;;;;;;;;;4986540;28;92799;-67
2022/09/21 12:02:04;;;;;;;4.07;1.00;;;;;;;;;;4976185;28;93456;-67
2022/09/21 12:04:36;;;;;;;6.63;1.13;;;;;;;;;;4976413;28;92762;-68
2022/09/21 12:07:15;;;;;;;3.28;1.30;;;;;;;;;;4981040;28;92594;-68
2022/09/21 12:09:54;;;;;;;4.77;1.30;;;;;;;;;;5028122;28;93140;-68
2022/09/21 12:12:22;;;;;;;6.57;1.35;;;;;;;;;;4994312;28;95844;-67
2022/09/21 12:14:54;;;;;;;3.85;1.00;;;;;;;;;;4998707;28;92642;-68
2022/09/21 12:17:26;;;;;;;6.22;0.80;;;;;;;;;;4990665;28;94281;-67
2022/09/21 12:20:22;;;;;;;5.07;0.98;;;;;;;;;;4993707;28;92467;-68
2022/09/21 12:22:49;;;;;;;11.32;1.40;;;;;;;;;;4954018;28;93260;-68
2022/09/21 12:25:36;;;;;;;3.38;1.00;;;;;;;;;;4971681;28;93937;-67
2022/09/21 12:28:06;;;;;;;5.03;0.80;;;;;;;;;;4956681;28;92450;-68
2022/09/21 12:30:33;;;;;;;11.13;1.38;;;;;;;;;;4973395;28;93146;-68
2022/09/21 12:33:08;;;;;;;3.78;1.10;;;;;;;;;;4972232;28;93648;-67
2022/09/21 12:35:46;;;;;;;5.45;1.75;;;;;;;;;;4962309;28;92678;-67
2022/09/21 12:38:32;;;;;;;3.65;0.93;;;;;;;;;;4962751;28;94959;-68
2022/09/21 12:41:09;;;;;;;9.30;0.95;;;;;;;;;;4972908;28;92477;-69
2022/09/21 12:43:38;;;;;;;9.38;1.05;;;;;;;;;;4971863;28;93164;-67
2022/09/21 12:46:07;;;;;;;2.80;0.93;;;;;;;;;;4973017;28;93499;-67
2022/09/21 12:48:37;;;;;;;6.55;0.88;;;;;;;;;;4973602;28;92554;-67
2022/09/21 12:51:15;;;;;;;4.97;0.90;;;;;;;;;;4972910;28;93196;-67
2022/09/21 12:53:46;;;;;;;4.97;0.98;;;;;;;;;;4964647;28;94506;-67
2022/09/21 12:56:17;;;;;;;5.15;1.02;;;;;;;;;;4954257;28;91787;-67
2022/09/21 12:58:50;;;;;;;3.67;1.02;;;;;;;;;;4958549;28;92573;-67
2022/09/21 13:01:34;;;;;;;4.95;1.27;;;;;;;;;;4978070;28;93406;-68
2022/09/21 13:04:11;;;;;;;3.13;1.20;;;;;;;;;;4984576;28;95296;-67
2022/09/21 13:06:37;;;;;;;4.30;0.95;;;;;;;;;;4994793;28;93829;-68
2022/09/21 13:09:05;;;;;;;5.72;1.00;;;;;;;;;;4994972;28;92479;-67
2022/09/21 13:11:48;;;;;;;5.00;1.10;;;;;;;;;;4997164;28;93828;-67
2022/09/21 13:14:14;;;;;;;4.72;1.30;;;;;;;;;;5027272;28;94415;-68
2022/09/21 13:16:41;;;;;;;3.90;1.02;;;;;;;;;;4995297;28;92524;-67
2022/09/21 13:19:20;;;;;;;2.03;0.77;;;;;;;;;;4993167;28;93618;-67
2022/09/21 13:22:07;;;;;;;3.63;0.87;;;;;;;;;;4996574;28;94971;-69
2022/09/21 13:24:33;;;;;;;13.85;2.33;;;;;;;;;;4975848;28;92515;-68
2022/09/21 13:27:04;;;;;;;12.80;1.77;;;;;;;;;;4988329;28;93773;-71
2022/09/21 13:29:33;;;;;;;7.55;1.00;;;;;;;;;;4994579;28;94886;-70
2022/09/21 13:32:19;;;;;;;3.80;1.03;;;;;;;;;;5007466;28;95619;-70
2022/09/21 13:34:47;;;;;;;3.15;0.70;;;;;;;;;;4990880;28;93958;-70
2022/09/21 13:37:23;;;;;;;6.30;0.80;;;;;;;;;;4993499;28;92828;-65
2022/09/21 13:40:02;;;;;;;7.63;0.90;;;;;;;;;;4987646;28;94264;-68
2022/09/21 13:42:29;;;;;;;3.60;0.70;;;;;;;;;;4992784;28;93549;-69
2022/09/21 13:44:58;;;;;;;4.80;1.38;;;;;;;;;;4997578;28;92549;-67
2022/09/21 13:47:30;;;;;;;5.60;1.00;;;;;;;;;;4986597;28;92720;-66
2022/09/21 13:49:57;;;;;;;7.30;1.27;;;;;;;;;;4995526;28;93055;-68
2022/09/21 13:52:28;;;;;;;6.93;1.27;;;;;;;;;;4997024;28;93167;-67
2022/09/21 13:54:57;;;;;;;3.75;1.08;;;;;;;;;;5028244;28;95868;-67
2022/09/21 13:57:27;;;;;;;7.65;1.35;;;;;;;;;;5026161;28;92772;-67
2022/09/21 14:00:02;;;;;;;8.95;1.30;;;;;;;;;;5028517;28;93428;-68
2022/09/21 14:02:31;;;;;;;3.72;0.98;;;;;;;;;;4993410;28;93439;-68
2022/09/21 14:05:00;;;;;;;5.75;1.35;;;;;;;;;;4995028;28;92565;-68
2022/09/21 14:07:28;;;;;;;6.22;0.95;;;;;;;;;;4999481;28;95535;-68
2022/09/21 14:09:59;;;;;;;2.85;1.10;;;;;;;;;;5028589;28;92492;-68
2022/09/21 14:12:31;;;;;;;4.70;1.42;;;;;;;;;;4997646;28;93101;-68
2022/09/21 14:15:10;;;;;;;7.03;1.20;;;;;;;;;;4997625;28;93285;-67
2022/09/21 14:17:36;;;;;;;8.38;0.90;;;;;;;;;;4995193;28;92532;-68
2022/09/21 14:20:05;;;;;;;5.45;0.93;;;;;;;;;;4995842;28;94860;-67
2022/09/21 14:22:33;;;;;;;7.88;1.40;;;;;;;;;;4997568;28;92770;-67
2022/09/21 14:25:18;;;;;;;4.75;1.00;;;;;;;;;;4995949;28;92549;-67
2022/09/21 14:27:45;;;;;;;5.82;1.30;;;;;;;;;;4997891;28;93352;-67
2022/09/21 14:30:18;;;;;;;3.95;1.20;;;;;;;;;;4983517;28;93412;-68
2022/09/21 14:33:06;;;;;;;2.75;0.98;;;;;;;;;;4977806;28;93094;-67
2022/09/21 14:35:36;;;;;;;3.45;0.98;;;;;;;;;;4996638;28;92547;-67
2022/09/21 14:38:16;;;;;;;4.30;1.20;;;;;;;;;;4997260;28;91802;-66
2022/09/21 14:40:46;;;;;;;6.22;1.13;;;;;;;;;;4995233;28;92654;-66
2022/09/21 14:43:14;;;;;;;8.68;1.52;;;;;;;;;;4996231;28;93591;-67
2022/09/21 14:45:41;;;;;;;2.30;0.98;;;;;;;;;;4994725;28;94905;-67
2022/09/21 14:48:12;;;;;;;5.97;1.10;;;;;;;;;;4996078;28;95755;-66
2022/09/21 14:51:00;;;;;;;3.53;1.08;;;;;;;;;;5023876;28;93457;-67
2022/09/21 14:53:26;;;;;;;5.57;1.33;;;;;;;;;;4986304;28;92449;-67
2022/09/21 14:56:03;;;;;;;6.05;1.30;;;;;;;;;;4995257;28;93470;-66
2022/09/21 14:58:36;;;;;;;4.50;1.10;;;;;;;;;;5028259;28;92560;-66
2022/09/21 15:01:25;;;;;;;4.55;1.25;;;;;;;;;;4995129;28;93627;-67
2022/09/21 15:03:58;;;;;;;4.55;1.10;;;;;;;;;;4994236;28;93130;-66
2022/09/21 15:12:15;;;;;;;9.35;2.00;;;;;;;;;;4984032;28;95805;-66